sensor_id;sensor_type;location;lat;lon;timestamp;P1;durP1;ratioP1;P2;durP2;ratioP2
41921;SDS011;27609;51.002;5.354;2023-10-19T00:00:39;4.93;;;3.70;;
41921;SDS011;27609;51.002;5.354;2023-10-19T00:03:09;4.57;;;2.45;;
41921;SDS011;27609;51.002;5.354;2023-10-19T00:05:36;4.47;;;3.13;;
41921;SDS011;27609;51.002;5.354;2023-10-19T00:08:03;7.05;;;3.88;;
41921;SDS011;27609;51.002;5.354;2023-10-19T00:10:32;4.13;;;3.53;;
41921;SDS011;27609;51.002;5.354;2023-10-19T00:13:01;6.05;;;2.95;;
41921;SDS011;27609;51.002;5.354;2023-10-19T00:15:29;3.42;;;2.40;;
41921;SDS011;27609;51.002;5.354;2023-10-19T00:18:04;3.53;;;2.90;;
41921;SDS011;27609;51.002;5.354;2023-10-19T00:20:52;4.55;;;2.95;;
41921;SDS011;27609;51.002;5.354;2023-10-19T00:23:22;5.22;;;3.00;;
41921;SDS011;27609;51.002;5.354;2023-10-19T00:25:58;3.17;;;2.90;;
41921;SDS011;27609;51.002;5.354;2023-10-19T00:28:26;3.33;;;2.85;;
41921;SDS011;27609;51.002;5.354;2023-10-19T00:30:53;8.82;;;3.00;;
41921;SDS011;27609;51.002;5.354;2023-10-19T00:33:28;3.22;;;2.60;;
41921;SDS011;27609;51.002;5.354;2023-10-19T00:35:54;4.82;;;3.22;;
41921;SDS011;27609;51.002;5.354;2023-10-19T00:38:25;4.55;;;2.88;;
41921;SDS011;27609;51.002;5.354;2023-10-19T00:41:00;4.45;;;3.20;;
41921;SDS011;27609;51.002;5.354;2023-10-19T00:43:35;3.53;;;2.90;;
41921;SDS011;27609;51.002;5.354;2023-10-19T00:46:07;4.15;;;2.90;;
41921;SDS011;27609;51.002;5.354;2023-10-19T00:48:56;3.83;;;2.40;;
41921;SDS011;27609;51.002;5.354;2023-10-19T00:56:47;3.58;;;2.58;;
41921;SDS011;27609;51.002;5.354;2023-10-19T00:59:23;2.33;;;2.13;;
41921;SDS011;27609;51.002;5.354;2023-10-19T01:01:51;3.53;;;2.40;;
41921;SDS011;27609;51.002;5.354;2023-10-19T01:04:29;3.70;;;1.92;;
41921;SDS011;27609;51.002;5.354;2023-10-19T01:06:59;5.82;;;2.45;;
41921;SDS011;27609;51.002;5.354;2023-10-19T01:09:29;5.15;;;2.00;;
41921;SDS011;27609;51.002;5.354;2023-10-19T01:12:00;5.03;;;2.30;;
41921;SDS011;27609;51.002;5.354;2023-10-19T01:14:31;3.13;;;1.73;;
41921;SDS011;27609;51.002;5.354;2023-10-19T01:16:57;4.97;;;2.00;;
41921;SDS011;27609;51.002;5.354;2023-10-19T01:19:23;3.70;;;1.50;;
41921;SDS011;27609;51.002;5.354;2023-10-19T01:21:52;1.70;;;1.30;;
41921;SDS011;27609;51.002;5.354;2023-10-19T01:24:24;1.70;;;1.02;;
41921;SDS011;27609;51.002;5.354;2023-10-19T01:27:04;3.92;;;1.10;;
41921;SDS011;27609;51.002;5.354;2023-10-19T01:29:34;4.70;;;1.45;;
41921;SDS011;27609;51.002;5.354;2023-10-19T01:32:01;4.15;;;0.95;;
41921;SDS011;27609;51.002;5.354;2023-10-19T01:34:37;7.57;;;1.00;;
41921;SDS011;27609;51.002;5.354;2023-10-19T01:37:02;3.63;;;1.00;;
41921;SDS011;27609;51.002;5.354;2023-10-19T01:39:33;3.53;;;0.98;;
41921;SDS011;27609;51.002;5.354;2023-10-19T01:42:04;3.78;;;0.80;;
41921;SDS011;27609;51.002;5.354;2023-10-19T01:44:30;8.30;;;1.38;;
41921;SDS011;27609;51.002;5.354;2023-10-19T01:46:56;4.43;;;1.23;;
41921;SDS011;27609;51.002;5.354;2023-10-19T01:49:22;1.02;;;0.60;;
41921;SDS011;27609;51.002;5.354;2023-10-19T01:51:54;3.35;;;0.93;;
41921;SDS011;27609;51.002;5.354;2023-10-19T01:54:23;2.40;;;0.70;;
41921;SDS011;27609;51.002;5.354;2023-10-19T01:56:52;5.55;;;0.90;;
41921;SDS011;27609;51.002;5.354;2023-10-19T01:59:21;7.03;;;1.15;;
41921;SDS011;27609;51.002;5.354;2023-10-19T02:01:55;1.65;;;0.60;;
41921;SDS011;27609;51.002;5.354;2023-10-19T02:04:22;2.88;;;0.95;;
41921;SDS011;27609;51.002;5.354;2023-10-19T02:06:48;2.67;;;0.60;;
41921;SDS011;27609;51.002;5.354;2023-10-19T02:09:16;6.70;;;0.80;;
41921;SDS011;27609;51.002;5.354;2023-10-19T02:11:51;6.35;;;0.90;;
41921;SDS011;27609;51.002;5.354;2023-10-19T02:14:26;3.45;;;1.27;;
41921;SDS011;27609;51.002;5.354;2023-10-19T02:16:55;1.60;;;0.52;;
41921;SDS011;27609;51.002;5.354;2023-10-19T02:19:24;3.80;;;0.70;;
41921;SDS011;27609;51.002;5.354;2023-10-19T02:21:55;3.42;;;0.77;;
41921;SDS011;27609;51.002;5.354;2023-10-19T02:24:28;2.40;;;0.80;;
41921;SDS011;27609;51.002;5.354;2023-10-19T02:26:57;6.45;;;0.75;;
41921;SDS011;27609;51.002;5.354;2023-10-19T02:29:23;6.03;;;0.90;;
41921;SDS011;27609;51.002;5.354;2023-10-19T02:31:51;2.13;;;0.65;;
41921;SDS011;27609;51.002;5.354;2023-10-19T02:34:18;4.88;;;0.85;;
41921;SDS011;27609;51.002;5.354;2023-10-19T02:36:44;2.20;;;0.52;;
41921;SDS011;27609;51.002;5.354;2023-10-19T02:39:11;3.83;;;0.95;;
41921;SDS011;27609;51.002;5.354;2023-10-19T02:41:46;3.47;;;0.75;;
41921;SDS011;27609;51.002;5.354;2023-10-19T02:44:16;3.13;;;0.70;;
41921;SDS011;27609;51.002;5.354;2023-10-19T02:46:47;4.70;;;0.82;;
41921;SDS011;27609;51.002;5.354;2023-10-19T02:49:19;1.15;;;0.77;;
41921;SDS011;27609;51.002;5.354;2023-10-19T02:51:46;5.82;;;1.08;;
41921;SDS011;27609;51.002;5.354;2023-10-19T02:54:14;4.40;;;0.80;;
41921;SDS011;27609;51.002;5.354;2023-10-19T02:56:46;4.68;;;0.80;;
41921;SDS011;27609;51.002;5.354;2023-10-19T02:59:17;3.42;;;1.00;;
41921;SDS011;27609;51.002;5.354;2023-10-19T03:01:54;3.47;;;0.80;;
41921;SDS011;27609;51.002;5.354;2023-10-19T03:04:39;9.33;;;1.13;;
41921;SDS011;27609;51.002;5.354;2023-10-19T03:07:06;4.10;;;0.93;;
41921;SDS011;27609;51.002;5.354;2023-10-19T03:09:32;3.35;;;0.70;;
41921;SDS011;27609;51.002;5.354;2023-10-19T03:12:01;1.23;;;0.60;;
41921;SDS011;27609;51.002;5.354;2023-10-19T03:14:34;4.18;;;0.90;;
41921;SDS011;27609;51.002;5.354;2023-10-19T03:17:00;11.23;;;0.90;;
41921;SDS011;27609;51.002;5.354;2023-10-19T03:19:26;5.80;;;0.82;;
41921;SDS011;27609;51.002;5.354;2023-10-19T03:21:55;6.10;;;0.90;;
41921;SDS011;27609;51.002;5.354;2023-10-19T03:24:20;2.63;;;0.88;;
41921;SDS011;27609;51.002;5.354;2023-10-19T03:27:13;6.93;;;1.02;;
41921;SDS011;27609;51.002;5.354;2023-10-19T03:29:43;8.15;;;1.00;;
41921;SDS011;27609;51.002;5.354;2023-10-19T03:32:28;2.50;;;0.68;;
41921;SDS011;27609;51.002;5.354;2023-10-19T03:34:57;2.92;;;1.00;;
41921;SDS011;27609;51.002;5.354;2023-10-19T03:37:25;5.72;;;1.42;;
41921;SDS011;27609;51.002;5.354;2023-10-19T03:39:54;5.30;;;1.00;;
41921;SDS011;27609;51.002;5.354;2023-10-19T03:42:23;4.10;;;0.90;;
41921;SDS011;27609;51.002;5.354;2023-10-19T03:44:57;6.70;;;1.20;;
41921;SDS011;27609;51.002;5.354;2023-10-19T03:47:25;2.95;;;1.00;;
41921;SDS011;27609;51.002;5.354;2023-10-19T03:49:52;2.15;;;1.08;;
41921;SDS011;27609;51.002;5.354;2023-10-19T03:52:18;6.05;;;1.45;;
41921;SDS011;27609;51.002;5.354;2023-10-19T03:54:44;7.47;;;1.60;;
41921;SDS011;27609;51.002;5.354;2023-10-19T03:57:12;3.63;;;0.95;;
41921;SDS011;27609;51.002;5.354;2023-10-19T03:59:45;4.55;;;0.93;;
41921;SDS011;27609;51.002;5.354;2023-10-19T04:02:12;7.05;;;1.23;;
41921;SDS011;27609;51.002;5.354;2023-10-19T04:04:46;5.65;;;1.00;;
41921;SDS011;27609;51.002;5.354;2023-10-19T04:07:20;3.00;;;1.20;;
41921;SDS011;27609;51.002;5.354;2023-10-19T04:09:55;8.55;;;1.42;;
41921;SDS011;27609;51.002;5.354;2023-10-19T04:12:44;12.05;;;1.45;;
41921;SDS011;27609;51.002;5.354;2023-10-19T04:15:10;4.93;;;1.00;;
41921;SDS011;27609;51.002;5.354;2023-10-19T04:17:39;5.38;;;1.33;;
41921;SDS011;27609;51.002;5.354;2023-10-19T04:20:06;5.75;;;1.20;;
41921;SDS011;27609;51.002;5.354;2023-10-19T04:22:46;9.13;;;1.35;;
41921;SDS011;27609;51.002;5.354;2023-10-19T04:25:13;7.13;;;1.98;;
41921;SDS011;27609;51.002;5.354;2023-10-19T04:27:42;7.57;;;1.48;;
41921;SDS011;27609;51.002;5.354;2023-10-19T04:30:08;4.83;;;1.07;;
41921;SDS011;27609;51.002;5.354;2023-10-19T04:32:44;5.35;;;0.90;;
41921;SDS011;27609;51.002;5.354;2023-10-19T04:35:14;7.15;;;1.23;;
41921;SDS011;27609;51.002;5.354;2023-10-19T04:37:46;3.72;;;1.48;;
41921;SDS011;27609;51.002;5.354;2023-10-19T04:40:13;7.53;;;1.42;;
41921;SDS011;27609;51.002;5.354;2023-10-19T04:42:39;8.43;;;1.63;;
41921;SDS011;27609;51.002;5.354;2023-10-19T04:45:04;9.90;;;1.80;;
41921;SDS011;27609;51.002;5.354;2023-10-19T04:47:31;10.05;;;1.85;;
41921;SDS011;27609;51.002;5.354;2023-10-19T04:50:00;6.00;;;1.33;;
41921;SDS011;27609;51.002;5.354;2023-10-19T04:52:27;5.28;;;1.02;;
41921;SDS011;27609;51.002;5.354;2023-10-19T04:54:53;4.28;;;0.95;;
41921;SDS011;27609;51.002;5.354;2023-10-19T04:57:19;7.68;;;1.15;;
41921;SDS011;27609;51.002;5.354;2023-10-19T04:59:46;7.50;;;1.85;;
41921;SDS011;27609;51.002;5.354;2023-10-19T05:02:12;6.65;;;2.17;;
41921;SDS011;27609;51.002;5.354;2023-10-19T05:04:38;8.00;;;1.33;;
41921;SDS011;27609;51.002;5.354;2023-10-19T05:07:03;5.68;;;1.35;;
41921;SDS011;27609;51.002;5.354;2023-10-19T05:09:29;10.25;;;1.85;;
41921;SDS011;27609;51.002;5.354;2023-10-19T05:11:56;8.63;;;1.10;;
41921;SDS011;27609;51.002;5.354;2023-10-19T05:14:22;7.35;;;1.33;;
41921;SDS011;27609;51.002;5.354;2023-10-19T05:16:48;8.60;;;2.00;;
41921;SDS011;27609;51.002;5.354;2023-10-19T05:19:14;7.70;;;1.73;;
41921;SDS011;27609;51.002;5.354;2023-10-19T05:21:40;9.40;;;2.80;;
41921;SDS011;27609;51.002;5.354;2023-10-19T05:24:06;6.93;;;1.80;;
41921;SDS011;27609;51.002;5.354;2023-10-19T05:26:35;5.68;;;1.80;;
41921;SDS011;27609;51.002;5.354;2023-10-19T05:29:00;11.95;;;1.58;;
41921;SDS011;27609;51.002;5.354;2023-10-19T05:31:26;10.95;;;2.05;;
41921;SDS011;27609;51.002;5.354;2023-10-19T05:33:53;5.30;;;1.40;;
41921;SDS011;27609;51.002;5.354;2023-10-19T05:36:19;6.18;;;1.58;;
41921;SDS011;27609;51.002;5.354;2023-10-19T05:38:44;7.22;;;1.17;;
41921;SDS011;27609;51.002;5.354;2023-10-19T05:41:10;9.02;;;1.55;;
41921;SDS011;27609;51.002;5.354;2023-10-19T05:43:37;6.63;;;1.50;;
41921;SDS011;27609;51.002;5.354;2023-10-19T05:46:03;8.82;;;1.80;;
41921;SDS011;27609;51.002;5.354;2023-10-19T05:48:29;4.35;;;1.13;;
41921;SDS011;27609;51.002;5.354;2023-10-19T05:50:55;15.48;;;2.78;;
41921;SDS011;27609;51.002;5.354;2023-10-19T05:53:21;4.10;;;1.33;;
41921;SDS011;27609;51.002;5.354;2023-10-19T05:55:48;8.32;;;1.33;;
41921;SDS011;27609;51.002;5.354;2023-10-19T05:58:14;7.88;;;1.50;;
41921;SDS011;27609;51.002;5.354;2023-10-19T06:00:41;4.22;;;1.60;;
41921;SDS011;27609;51.002;5.354;2023-10-19T06:03:07;5.20;;;1.20;;
41921;SDS011;27609;51.002;5.354;2023-10-19T06:05:32;7.00;;;1.55;;
41921;SDS011;27609;51.002;5.354;2023-10-19T06:07:58;7.60;;;1.48;;
41921;SDS011;27609;51.002;5.354;2023-10-19T06:10:25;7.45;;;1.20;;
41921;SDS011;27609;51.002;5.354;2023-10-19T06:12:52;3.65;;;1.23;;
41921;SDS011;27609;51.002;5.354;2023-10-19T06:15:18;9.38;;;1.60;;
41921;SDS011;27609;51.002;5.354;2023-10-19T06:17:46;7.35;;;1.80;;
41921;SDS011;27609;51.002;5.354;2023-10-19T06:20:13;3.70;;;1.33;;
41921;SDS011;27609;51.002;5.354;2023-10-19T06:22:49;9.18;;;1.58;;
41921;SDS011;27609;51.002;5.354;2023-10-19T06:25:21;10.05;;;1.67;;
41921;SDS011;27609;51.002;5.354;2023-10-19T06:27:48;3.95;;;1.05;;
41921;SDS011;27609;51.002;5.354;2023-10-19T06:30:15;5.80;;;1.48;;
41921;SDS011;27609;51.002;5.354;2023-10-19T06:32:48;8.07;;;1.67;;
41921;SDS011;27609;51.002;5.354;2023-10-19T06:35:19;7.15;;;1.52;;
41921;SDS011;27609;51.002;5.354;2023-10-19T06:37:46;4.97;;;2.25;;
41921;SDS011;27609;51.002;5.354;2023-10-19T06:40:12;8.13;;;1.48;;
41921;SDS011;27609;51.002;5.354;2023-10-19T06:42:42;13.55;;;2.58;;
41921;SDS011;27609;51.002;5.354;2023-10-19T06:45:10;4.25;;;1.63;;
41921;SDS011;27609;51.002;5.354;2023-10-19T06:47:39;6.93;;;1.73;;
41921;SDS011;27609;51.002;5.354;2023-10-19T06:50:06;6.22;;;1.45;;
41921;SDS011;27609;51.002;5.354;2023-10-19T06:52:35;7.90;;;1.95;;
41921;SDS011;27609;51.002;5.354;2023-10-19T06:55:06;13.27;;;1.90;;
41921;SDS011;27609;51.002;5.354;2023-10-19T06:57:38;8.15;;;1.48;;
41921;SDS011;27609;51.002;5.354;2023-10-19T07:00:13;9.23;;;1.80;;
41921;SDS011;27609;51.002;5.354;2023-10-19T07:02:43;9.10;;;2.03;;
41921;SDS011;27609;51.002;5.354;2023-10-19T07:05:12;6.18;;;1.48;;
41921;SDS011;27609;51.002;5.354;2023-10-19T07:07:42;9.07;;;2.15;;
41921;SDS011;27609;51.002;5.354;2023-10-19T07:10:09;10.88;;;2.10;;
41921;SDS011;27609;51.002;5.354;2023-10-19T07:12:40;9.13;;;1.63;;
41921;SDS011;27609;51.002;5.354;2023-10-19T07:15:09;5.07;;;1.30;;
41921;SDS011;27609;51.002;5.354;2023-10-19T07:17:44;4.53;;;1.55;;
41921;SDS011;27609;51.002;5.354;2023-10-19T07:20:11;11.20;;;1.60;;
41921;SDS011;27609;51.002;5.354;2023-10-19T07:22:57;10.70;;;1.95;;
41921;SDS011;27609;51.002;5.354;2023-10-19T07:25:42;3.42;;;1.38;;
41921;SDS011;27609;51.002;5.354;2023-10-19T07:28:09;9.45;;;1.70;;
41921;SDS011;27609;51.002;5.354;2023-10-19T07:30:41;6.43;;;1.60;;
41921;SDS011;27609;51.002;5.354;2023-10-19T07:33:08;5.22;;;1.90;;
41921;SDS011;27609;51.002;5.354;2023-10-19T07:35:35;7.10;;;1.75;;
41921;SDS011;27609;51.002;5.354;2023-10-19T07:38:04;7.35;;;1.65;;
41921;SDS011;27609;51.002;5.354;2023-10-19T07:40:32;8.63;;;1.50;;
41921;SDS011;27609;51.002;5.354;2023-10-19T07:42:58;5.63;;;1.50;;
41921;SDS011;27609;51.002;5.354;2023-10-19T07:45:24;4.75;;;1.92;;
41921;SDS011;27609;51.002;5.354;2023-10-19T07:47:50;3.55;;;1.20;;
41921;SDS011;27609;51.002;5.354;2023-10-19T07:50:16;4.07;;;1.30;;
41921;SDS011;27609;51.002;5.354;2023-10-19T07:52:46;4.97;;;1.67;;
41921;SDS011;27609;51.002;5.354;2023-10-19T07:55:13;5.82;;;1.98;;
41921;SDS011;27609;51.002;5.354;2023-10-19T07:57:40;6.35;;;1.40;;
41921;SDS011;27609;51.002;5.354;2023-10-19T08:00:07;8.25;;;1.60;;
41921;SDS011;27609;51.002;5.354;2023-10-19T08:02:35;10.13;;;1.45;;
41921;SDS011;27609;51.002;5.354;2023-10-19T08:05:02;5.47;;;1.13;;
41921;SDS011;27609;51.002;5.354;2023-10-19T08:07:28;5.03;;;1.05;;
41921;SDS011;27609;51.002;5.354;2023-10-19T08:09:54;8.48;;;1.80;;
41921;SDS011;27609;51.002;5.354;2023-10-19T08:12:23;5.57;;;1.42;;
41921;SDS011;27609;51.002;5.354;2023-10-19T08:14:49;4.47;;;1.40;;
41921;SDS011;27609;51.002;5.354;2023-10-19T08:17:15;6.20;;;1.40;;
41921;SDS011;27609;51.002;5.354;2023-10-19T08:19:41;3.40;;;1.10;;
41921;SDS011;27609;51.002;5.354;2023-10-19T08:22:07;6.18;;;1.42;;
41921;SDS011;27609;51.002;5.354;2023-10-19T08:24:33;7.25;;;1.73;;
41921;SDS011;27609;51.002;5.354;2023-10-19T08:27:00;6.75;;;1.40;;
41921;SDS011;27609;51.002;5.354;2023-10-19T08:29:30;6.35;;;1.35;;
41921;SDS011;27609;51.002;5.354;2023-10-19T08:31:57;6.13;;;1.10;;
41921;SDS011;27609;51.002;5.354;2023-10-19T08:34:24;5.75;;;1.52;;
41921;SDS011;27609;51.002;5.354;2023-10-19T08:36:50;6.10;;;1.45;;
41921;SDS011;27609;51.002;5.354;2023-10-19T08:39:17;11.98;;;1.67;;
41921;SDS011;27609;51.002;5.354;2023-10-19T08:41:43;3.47;;;1.52;;
41921;SDS011;27609;51.002;5.354;2023-10-19T08:44:08;8.98;;;1.40;;
41921;SDS011;27609;51.002;5.354;2023-10-19T08:46:40;6.60;;;1.50;;
41921;SDS011;27609;51.002;5.354;2023-10-19T08:49:14;6.97;;;1.33;;
41921;SDS011;27609;51.002;5.354;2023-10-19T08:51:44;4.25;;;1.52;;
41921;SDS011;27609;51.002;5.354;2023-10-19T08:54:11;9.02;;;1.50;;
41921;SDS011;27609;51.002;5.354;2023-10-19T08:56:39;11.70;;;1.67;;
41921;SDS011;27609;51.002;5.354;2023-10-19T08:59:09;9.93;;;1.90;;
41921;SDS011;27609;51.002;5.354;2023-10-19T09:01:36;6.03;;;1.27;;
41921;SDS011;27609;51.002;5.354;2023-10-19T09:04:03;7.82;;;1.50;;
41921;SDS011;27609;51.002;5.354;2023-10-19T09:06:30;9.02;;;2.83;;
41921;SDS011;27609;51.002;5.354;2023-10-19T09:09:06;7.90;;;2.17;;
41921;SDS011;27609;51.002;5.354;2023-10-19T09:11:42;7.20;;;1.95;;
41921;SDS011;27609;51.002;5.354;2023-10-19T09:14:09;10.45;;;1.42;;
41921;SDS011;27609;51.002;5.354;2023-10-19T09:16:37;8.68;;;1.42;;
41921;SDS011;27609;51.002;5.354;2023-10-19T09:21:45;8.10;;;1.70;;
41921;SDS011;27609;51.002;5.354;2023-10-19T09:24:11;18.30;;;2.67;;
41921;SDS011;27609;51.002;5.354;2023-10-19T09:26:37;10.23;;;2.10;;
41921;SDS011;27609;51.002;5.354;2023-10-19T09:29:02;5.28;;;1.48;;
41921;SDS011;27609;51.002;5.354;2023-10-19T09:31:28;15.80;;;1.60;;
41921;SDS011;27609;51.002;5.354;2023-10-19T09:33:55;8.55;;;1.58;;
41921;SDS011;27609;51.002;5.354;2023-10-19T09:36:22;13.20;;;2.13;;
41921;SDS011;27609;51.002;5.354;2023-10-19T09:38:51;9.60;;;1.75;;
41921;SDS011;27609;51.002;5.354;2023-10-19T09:41:18;9.18;;;1.45;;
41921;SDS011;27609;51.002;5.354;2023-10-19T09:43:47;7.55;;;1.77;;
41921;SDS011;27609;51.002;5.354;2023-10-19T09:46:32;11.23;;;1.70;;
41921;SDS011;27609;51.002;5.354;2023-10-19T09:49:03;7.63;;;2.15;;
41921;SDS011;27609;51.002;5.354;2023-10-19T09:51:31;7.65;;;1.70;;
41921;SDS011;27609;51.002;5.354;2023-10-19T09:56:40;12.48;;;2.47;;
41921;SDS011;27609;51.002;5.354;2023-10-19T10:04:39;8.95;;;1.80;;
41921;SDS011;27609;51.002;5.354;2023-10-19T10:07:06;4.90;;;1.63;;
41921;SDS011;27609;51.002;5.354;2023-10-19T10:09:35;7.97;;;1.88;;
41921;SDS011;27609;51.002;5.354;2023-10-19T10:12:24;11.75;;;2.40;;
41921;SDS011;27609;51.002;5.354;2023-10-19T10:15:01;8.63;;;1.52;;
41921;SDS011;27609;51.002;5.354;2023-10-19T10:17:41;10.40;;;2.33;;
41921;SDS011;27609;51.002;5.354;2023-10-19T10:22:39;8.85;;;2.33;;
41921;SDS011;27609;51.002;5.354;2023-10-19T10:25:06;10.63;;;2.03;;
41921;SDS011;27609;51.002;5.354;2023-10-19T10:27:35;11.27;;;2.00;;
41921;SDS011;27609;51.002;5.354;2023-10-19T10:30:02;12.45;;;2.30;;
41921;SDS011;27609;51.002;5.354;2023-10-19T10:32:42;8.38;;;1.83;;
41921;SDS011;27609;51.002;5.354;2023-10-19T10:38:06;7.32;;;1.77;;
41921;SDS011;27609;51.002;5.354;2023-10-19T10:40:45;7.88;;;1.88;;
41921;SDS011;27609;51.002;5.354;2023-10-19T10:43:15;10.02;;;1.90;;
41921;SDS011;27609;51.002;5.354;2023-10-19T10:45:43;10.27;;;2.13;;
41921;SDS011;27609;51.002;5.354;2023-10-19T10:48:15;9.05;;;2.13;;
41921;SDS011;27609;51.002;5.354;2023-10-19T10:50:44;12.52;;;2.20;;
41921;SDS011;27609;51.002;5.354;2023-10-19T10:53:13;6.75;;;2.20;;
41921;SDS011;27609;51.002;5.354;2023-10-19T10:55:42;10.38;;;2.13;;
41921;SDS011;27609;51.002;5.354;2023-10-19T10:58:08;10.73;;;1.80;;
41921;SDS011;27609;51.002;5.354;2023-10-19T11:00:41;7.00;;;2.47;;
41921;SDS011;27609;51.002;5.354;2023-10-19T11:03:07;8.73;;;1.70;;
41921;SDS011;27609;51.002;5.354;2023-10-19T11:05:35;13.25;;;2.47;;
41921;SDS011;27609;51.002;5.354;2023-10-19T11:08:08;9.52;;;1.77;;
41921;SDS011;27609;51.002;5.354;2023-10-19T11:10:46;6.15;;;1.55;;
41921;SDS011;27609;51.002;5.354;2023-10-19T11:13:14;10.55;;;1.95;;
41921;SDS011;27609;51.002;5.354;2023-10-19T11:21:11;4.68;;;1.20;;
41921;SDS011;27609;51.002;5.354;2023-10-19T11:26:04;8.48;;;1.52;;
41921;SDS011;27609;51.002;5.354;2023-10-19T11:28:33;6.75;;;2.20;;
41921;SDS011;27609;51.002;5.354;2023-10-19T11:31:18;11.45;;;2.08;;
41921;SDS011;27609;51.002;5.354;2023-10-19T11:33:45;8.52;;;2.00;;
41921;SDS011;27609;51.002;5.354;2023-10-19T11:36:13;8.18;;;2.20;;
41921;SDS011;27609;51.002;5.354;2023-10-19T11:38:40;5.40;;;1.60;;
41921;SDS011;27609;51.002;5.354;2023-10-19T11:41:07;4.63;;;1.42;;
41921;SDS011;27609;51.002;5.354;2023-10-19T11:43:34;7.78;;;2.00;;
41921;SDS011;27609;51.002;5.354;2023-10-19T11:46:00;9.27;;;1.92;;
41921;SDS011;27609;51.002;5.354;2023-10-19T11:48:29;9.82;;;2.22;;
41921;SDS011;27609;51.002;5.354;2023-10-19T11:50:55;8.35;;;2.10;;
41921;SDS011;27609;51.002;5.354;2023-10-19T11:53:21;8.57;;;1.92;;
41921;SDS011;27609;51.002;5.354;2023-10-19T11:55:47;8.10;;;1.90;;
41921;SDS011;27609;51.002;5.354;2023-10-19T11:58:13;7.82;;;1.70;;
41921;SDS011;27609;51.002;5.354;2023-10-19T12:00:40;9.00;;;2.30;;
41921;SDS011;27609;51.002;5.354;2023-10-19T12:03:08;8.10;;;1.27;;
41921;SDS011;27609;51.002;5.354;2023-10-19T12:05:36;10.45;;;2.28;;
41921;SDS011;27609;51.002;5.354;2023-10-19T12:08:02;8.60;;;1.98;;
41921;SDS011;27609;51.002;5.354;2023-10-19T12:10:28;11.77;;;1.90;;
41921;SDS011;27609;51.002;5.354;2023-10-19T12:13:06;7.30;;;2.55;;
41921;SDS011;27609;51.002;5.354;2023-10-19T12:15:33;11.13;;;2.15;;
41921;SDS011;27609;51.002;5.354;2023-10-19T12:17:59;9.55;;;2.15;;
41921;SDS011;27609;51.002;5.354;2023-10-19T12:20:27;5.15;;;1.65;;
41921;SDS011;27609;51.002;5.354;2023-10-19T12:22:53;6.55;;;1.77;;
41921;SDS011;27609;51.002;5.354;2023-10-19T12:25:22;8.98;;;2.63;;
41921;SDS011;27609;51.002;5.354;2023-10-19T12:27:54;6.85;;;1.63;;
41921;SDS011;27609;51.002;5.354;2023-10-19T12:30:22;8.05;;;1.55;;
41921;SDS011;27609;51.002;5.354;2023-10-19T12:32:51;9.00;;;1.65;;
41921;SDS011;27609;51.002;5.354;2023-10-19T12:35:17;11.30;;;1.92;;
41921;SDS011;27609;51.002;5.354;2023-10-19T12:37:49;3.75;;;1.40;;
41921;SDS011;27609;51.002;5.354;2023-10-19T12:40:18;6.45;;;1.90;;
41921;SDS011;27609;51.002;5.354;2023-10-19T12:43:00;6.80;;;2.00;;
41921;SDS011;27609;51.002;5.354;2023-10-19T12:45:32;4.47;;;1.50;;
41921;SDS011;27609;51.002;5.354;2023-10-19T12:48:02;10.35;;;1.63;;
41921;SDS011;27609;51.002;5.354;2023-10-19T12:50:29;6.68;;;1.48;;
41921;SDS011;27609;51.002;5.354;2023-10-19T12:52:56;13.48;;;1.98;;
41921;SDS011;27609;51.002;5.354;2023-10-19T12:55:21;10.80;;;1.95;;
41921;SDS011;27609;51.002;5.354;2023-10-19T12:57:47;9.13;;;2.30;;
41921;SDS011;27609;51.002;5.354;2023-10-19T13:00:16;7.18;;;2.10;;
41921;SDS011;27609;51.002;5.354;2023-10-19T13:02:51;8.73;;;1.90;;
41921;SDS011;27609;51.002;5.354;2023-10-19T13:05:25;10.65;;;2.38;;
41921;SDS011;27609;51.002;5.354;2023-10-19T13:07:57;8.43;;;1.77;;
41921;SDS011;27609;51.002;5.354;2023-10-19T13:10:27;10.13;;;2.10;;
41921;SDS011;27609;51.002;5.354;2023-10-19T13:12:54;3.58;;;1.77;;
41921;SDS011;27609;51.002;5.354;2023-10-19T13:15:20;12.90;;;2.10;;
41921;SDS011;27609;51.002;5.354;2023-10-19T13:17:47;11.60;;;2.03;;
41921;SDS011;27609;51.002;5.354;2023-10-19T13:20:13;7.72;;;2.35;;
41921;SDS011;27609;51.002;5.354;2023-10-19T13:22:43;3.92;;;2.30;;
41921;SDS011;27609;51.002;5.354;2023-10-19T13:25:09;13.40;;;2.20;;
41921;SDS011;27609;51.002;5.354;2023-10-19T13:27:38;6.35;;;2.65;;
41921;SDS011;27609;51.002;5.354;2023-10-19T13:30:07;7.53;;;2.10;;
41921;SDS011;27609;51.002;5.354;2023-10-19T13:32:36;15.50;;;2.85;;
41921;SDS011;27609;51.002;5.354;2023-10-19T13:35:02;8.23;;;2.40;;
41921;SDS011;27609;51.002;5.354;2023-10-19T13:37:28;8.07;;;2.60;;
41921;SDS011;27609;51.002;5.354;2023-10-19T13:39:53;8.35;;;2.70;;
41921;SDS011;27609;51.002;5.354;2023-10-19T13:42:19;3.22;;;2.00;;
41921;SDS011;27609;51.002;5.354;2023-10-19T13:44:46;5.40;;;2.38;;
41921;SDS011;27609;51.002;5.354;2023-10-19T13:47:12;4.55;;;1.90;;
41921;SDS011;27609;51.002;5.354;2023-10-19T13:49:38;4.75;;;2.63;;
41921;SDS011;27609;51.002;5.354;2023-10-19T13:52:04;7.53;;;1.83;;
41921;SDS011;27609;51.002;5.354;2023-10-19T13:54:30;7.38;;;2.03;;
41921;SDS011;27609;51.002;5.354;2023-10-19T13:56:56;5.63;;;1.65;;
41921;SDS011;27609;51.002;5.354;2023-10-19T13:59:21;6.22;;;2.53;;
41921;SDS011;27609;51.002;5.354;2023-10-19T14:01:48;4.78;;;1.88;;
41921;SDS011;27609;51.002;5.354;2023-10-19T14:04:15;5.68;;;1.33;;
41921;SDS011;27609;51.002;5.354;2023-10-19T14:06:41;4.30;;;1.42;;
41921;SDS011;27609;51.002;5.354;2023-10-19T14:09:08;4.70;;;1.33;;
41921;SDS011;27609;51.002;5.354;2023-10-19T14:11:37;6.07;;;1.58;;
41921;SDS011;27609;51.002;5.354;2023-10-19T14:14:03;4.88;;;1.33;;
41921;SDS011;27609;51.002;5.354;2023-10-19T14:16:29;6.28;;;1.67;;
41921;SDS011;27609;51.002;5.354;2023-10-19T14:18:56;8.38;;;1.80;;
41921;SDS011;27609;51.002;5.354;2023-10-19T14:21:22;7.10;;;1.67;;
41921;SDS011;27609;51.002;5.354;2023-10-19T14:23:51;7.85;;;1.25;;
41921;SDS011;27609;51.002;5.354;2023-10-19T14:26:18;5.88;;;1.50;;
41921;SDS011;27609;51.002;5.354;2023-10-19T14:28:44;2.75;;;1.73;;
41921;SDS011;27609;51.002;5.354;2023-10-19T14:31:10;5.53;;;1.33;;
41921;SDS011;27609;51.002;5.354;2023-10-19T14:33:38;3.58;;;1.70;;
41921;SDS011;27609;51.002;5.354;2023-10-19T14:36:04;3.15;;;1.50;;
41921;SDS011;27609;51.002;5.354;2023-10-19T14:38:31;5.70;;;2.22;;
41921;SDS011;27609;51.002;5.354;2023-10-19T14:40:56;6.10;;;1.80;;
41921;SDS011;27609;51.002;5.354;2023-10-19T14:43:23;6.10;;;2.10;;
41921;SDS011;27609;51.002;5.354;2023-10-19T14:45:50;9.57;;;2.38;;
41921;SDS011;27609;51.002;5.354;2023-10-19T14:48:16;7.43;;;2.15;;
41921;SDS011;27609;51.002;5.354;2023-10-19T14:50:44;4.30;;;1.65;;
41921;SDS011;27609;51.002;5.354;2023-10-19T14:53:10;6.47;;;2.35;;
41921;SDS011;27609;51.002;5.354;2023-10-19T14:55:37;5.50;;;2.00;;
41921;SDS011;27609;51.002;5.354;2023-10-19T14:58:02;5.00;;;2.20;;
41921;SDS011;27609;51.002;5.354;2023-10-19T15:00:31;3.55;;;1.80;;
41921;SDS011;27609;51.002;5.354;2023-10-19T15:03:02;2.45;;;1.35;;
41921;SDS011;27609;51.002;5.354;2023-10-19T15:08:00;2.95;;;2.03;;
41921;SDS011;27609;51.002;5.354;2023-10-19T15:10:27;4.72;;;1.83;;
41921;SDS011;27609;51.002;5.354;2023-10-19T15:12:54;4.55;;;1.98;;
41921;SDS011;27609;51.002;5.354;2023-10-19T15:15:24;3.25;;;2.03;;
41921;SDS011;27609;51.002;5.354;2023-10-19T15:17:52;3.03;;;2.08;;
41921;SDS011;27609;51.002;5.354;2023-10-19T15:20:19;7.90;;;2.35;;
41921;SDS011;27609;51.002;5.354;2023-10-19T15:22:47;3.92;;;2.20;;
41921;SDS011;27609;51.002;5.354;2023-10-19T15:25:13;6.35;;;2.40;;
41921;SDS011;27609;51.002;5.354;2023-10-19T15:27:43;7.57;;;2.10;;